Address 0xe81466613455cb3ace40a3e726a1b2db9da3e6a0 2

 
 
Txn Hash Method
Block
From
To
Value [Txn Fee]
0x078eaaca486bcd11cb7f4efd6f2f06c2ce98b79505deb5024f70a7b26f66d930Execute Meta Tra...335285592022-09-25 0:49:543 mins ago0xe81466613455cb3ace40a3e726a1b2db9da3e6a0OUT 0xf1b5af2bd94ddfb696b54dabb06118a79c7460bc0 MATIC0.004604637712 35.325725844
0xa76aedcac8f44c35eeba4673e0ca65b0c05fdf7cbd5df490860b89f7302c56fdExecute Meta Tra...335284112022-09-25 0:44:508 mins ago0xe81466613455cb3ace40a3e726a1b2db9da3e6a0OUT 0xf1b5af2bd94ddfb696b54dabb06118a79c7460bc0 MATIC0.005085857701 34.650000011
0xb43f2fb6e45a31490c267f783fbbd5e19ce8bdf8ea5a6f58a092bba458e237cdForward Meta Tx335282862022-09-25 0:40:3212 mins ago0xe81466613455cb3ace40a3e726a1b2db9da3e6a0OUT Meta Tx Forwarder0 MATIC0.005515829551 34.650000011
0x93f36e33450b8918b914654eaa170f19410ea6d2a803b6f543ada4b8aba85607Execute Meta Tra...335281582022-09-25 0:36:0817 mins ago0xe81466613455cb3ace40a3e726a1b2db9da3e6a0OUT 0xf1b5af2bd94ddfb696b54dabb06118a79c7460bc0 MATIC0.005086689301 34.650000012
0x389a1c5ec36c567abe8a471b34ae3bea6e7ef9e6a8357e21f0c869cadf44f8b3Execute Meta Tra...335280322022-09-25 0:31:4821 mins ago0xe81466613455cb3ace40a3e726a1b2db9da3e6a0OUT 0xf1b5af2bd94ddfb696b54dabb06118a79c7460bc0 MATIC0.003026088451 34.650000012
0xb90b768be03d140dac0ec4fcf682c54de4351c6e92c4ed80a6e74223c8b5ed65Execute Meta Tra...335278732022-09-25 0:26:2027 mins ago0xe81466613455cb3ace40a3e726a1b2db9da3e6a0OUT 0xc9a67ed1472a76d064c826b54c144ca00dae40150 MATIC0.005611428902 34.650000013
0xf4e996add451655b1b50857c9df6dc8ada37e0aeba6cbadac4280d379c5d4377Execute Meta Tra...335278432022-09-25 0:25:1628 mins ago0xe81466613455cb3ace40a3e726a1b2db9da3e6a0OUT 0xf1b5af2bd94ddfb696b54dabb06118a79c7460bc0 MATIC0.003026920051 34.650000013
0x1beeec432f03131e4dbc55bffe04fecded81c206e5d1c5c1e2247ce3ff316b5dExecute Meta Tra...335277282022-09-25 0:21:1832 mins ago0xe81466613455cb3ace40a3e726a1b2db9da3e6a0OUT 0x89aac1f5ccdd54dd8a09e5c858f19a665e4fa32b0 MATIC0.007306506902 34.650000012
0x9b1e48dedeced97ef3e88d31128dcaf3c03d4ef2b814c40a8dcff77c5b88c444Execute Meta Tra...335276182022-09-25 0:17:3435 mins ago0xe81466613455cb3ace40a3e726a1b2db9da3e6a0OUT 0xf1b5af2bd94ddfb696b54dabb06118a79c7460bc0 MATIC0.004494174302 34.650000016
0xb575dc78b387870b65e7d7d81dc5dc1d16317b9aa738dac1b39422a4b3fe4069Execute Meta Tra...335273532022-09-25 0:08:2445 mins ago0xe81466613455cb3ace40a3e726a1b2db9da3e6a0OUT 0xf1b5af2bd94ddfb696b54dabb06118a79c7460bc0 MATIC0.0012434499 34.650000017
0xba18b662024d806d87a74c2d046432f2a1dd0228d5eb94372185d128b11edd00Execute Meta Tra...335272222022-09-25 0:03:5449 mins ago0xe81466613455cb3ace40a3e726a1b2db9da3e6a0OUT 0x7adbced399630dd11a97f2e2dc206911167071ae0 MATIC0.006183396452 34.650000015
0xa756feaa840a0b91562f9c0a875d02b559b558d1066de051e1f2e739028f7eafExecute Meta Tra...335271022022-09-24 23:59:4653 mins ago0xe81466613455cb3ace40a3e726a1b2db9da3e6a0OUT 0xf1b5af2bd94ddfb696b54dabb06118a79c7460bc0 MATIC0.005479359865 42.036393852
0x5c1d58b022d38b13145c9d13e1d5b7eb1f6afb47920bbd43188fec67031181f7Execute Meta Tra...335269412022-09-24 23:54:1459 mins ago0xe81466613455cb3ace40a3e726a1b2db9da3e6a0OUT 0xf1b5af2bd94ddfb696b54dabb06118a79c7460bc0 MATIC0.004516142401 34.65000001
0xc3c71c151404f2e6a54058a20e1be7844972c52091aaab629631b9134f72aff3Execute Meta Tra...335268182022-09-24 23:50:001 hr 3 mins ago0xe81466613455cb3ace40a3e726a1b2db9da3e6a0OUT 0xf1b5af2bd94ddfb696b54dabb06118a79c7460bc0 MATIC0.004975272619 38.359259064
0xa690f6d357791f257ed806df28dda9ca9010d51ee29138ff6ddf7c736566abdaExecute EIP712335267012022-09-24 23:45:581 hr 7 mins ago0xe81466613455cb3ace40a3e726a1b2db9da3e6a0OUT 0x86c80a8aa58e0a4fa09a69624c31ab2a6cad56b80 MATIC0.009630946276 34.747183252
0x30b9d239b2146a8dfd24b407b0cd223ad57ea2a7a0f968ea0ebd5da2a57cf011Execute Meta Tra...335265932022-09-24 23:42:181 hr 11 mins ago0xe81466613455cb3ace40a3e726a1b2db9da3e6a0OUT 0xf1b5af2bd94ddfb696b54dabb06118a79c7460bc0 MATIC0.004881894351 37.449327645
0x0690120cc14e52b800ca29e544bf4ff4856ac1149f0234bf0b44a4daed908877Execute EIP712335264622022-09-24 23:37:441 hr 15 mins ago0xe81466613455cb3ace40a3e726a1b2db9da3e6a0OUT 0x86c80a8aa58e0a4fa09a69624c31ab2a6cad56b80 MATIC0.010327036524 37.244072867
0x2c993b4632aee6e4ace5061f40b02af91db93d8e588976c48e685f29f7ceb01eExecute Meta Tra...335262492022-09-24 23:30:261 hr 23 mins ago0xe81466613455cb3ace40a3e726a1b2db9da3e6a0OUT 0xf1b5af2bd94ddfb696b54dabb06118a79c7460bc0 MATIC0.0056750342 38.664065466
0xee3152f8207d68d29e754fa345ef4817c319d31c6cac906eaf6ab72e31d6595eExecute Meta Tra...335261342022-09-24 23:26:261 hr 27 mins ago0xe81466613455cb3ace40a3e726a1b2db9da3e6a0OUT 0xf1b5af2bd94ddfb696b54dabb06118a79c7460bc0 MATIC0.005521478205 37.611736933
0x574e9e00a2f640781125ff83dbf45a86cb56564892a66dc80060297ff74ec5faExecute Personal...335259962022-09-24 23:21:421 hr 31 mins ago0xe81466613455cb3ace40a3e726a1b2db9da3e6a0OUT 0x86c80a8aa58e0a4fa09a69624c31ab2a6cad56b80 MATIC0.003627896148 37.677160928
0x0ef99280ef74a61110f69681dfe015cea4ae1a5cd22e238513635623fbb40e4bExecute EIP712335257632022-09-24 23:13:441 hr 39 mins ago0xe81466613455cb3ace40a3e726a1b2db9da3e6a0OUT 0x86c80a8aa58e0a4fa09a69624c31ab2a6cad56b80 MATIC0.005134627402 37.252255633
0x011d96387547020671c2f7261d975cacd2ab08931d99e8eac7bef24b5b259fafExecute Personal...335254312022-09-24 23:02:161 hr 51 mins ago0xe81466613455cb3ace40a3e726a1b2db9da3e6a0OUT 0x86c80a8aa58e0a4fa09a69624c31ab2a6cad56b80 MATIC0.008084878983 43.28441247
0x2dc75bd63b24a6d52fd440889047d7241b7528e219c803b8d8eed3af113df19dExecute Meta Tra...335250492022-09-24 22:49:082 hrs 4 mins ago0xe81466613455cb3ace40a3e726a1b2db9da3e6a0OUT Wrapped Ether0 MATIC0.003454309681 63.450518579
0x4ca293e01a4acca05985274fa23553ee9894759f7c678da7ca564d13cedbbf50Execute EIP712335247172022-09-24 22:37:442 hrs 15 mins ago0xe81466613455cb3ace40a3e726a1b2db9da3e6a0OUT 0x86c80a8aa58e0a4fa09a69624c31ab2a6cad56b80 MATIC0.004806120538 37.094853765
0xc4c9e835b98d321df6974868f2bff4888fcb00a314e58967e68ee3725528a3deExecute Meta Tra...335245112022-09-24 22:30:402 hrs 22 mins ago0xe81466613455cb3ace40a3e726a1b2db9da3e6a0OUT 0xf1b5af2bd94ddfb696b54dabb06118a79c7460bc0 MATIC0.005134211041 37.625947507
[ Download CSV Export 
Parent Txn Hash Block From To Value
Loading

Contract Name:
0 MATIC

Compiler Version
0

Optimization Enabled:
0 MATIC

Other Settings:
-NA-
Block Transaction Gas Used Reward
Age Block Fee Address BC Fee Address Voting Power Jailed Incoming
Block Uncle Number Difficulty Gas Used Reward
Loading
Loading
Make sure to use the "Vote Down" button for any spammy posts, and the "Vote Up" for interesting conversations.